sensor_id;sensor_type;location;lat;lon;timestamp;pressure;altitude;pressure_sealevel;temperature;humidity
37892;BME280;45797;47.466;9.486;2023-09-19T00:03:52;95706.41;;;18.74;72.22
37892;BME280;45797;47.466;9.486;2023-09-19T00:08:55;95710.06;;;18.73;72.11
37892;BME280;45797;47.466;9.486;2023-09-19T00:13:57;95709.41;;;18.71;72.07
37892;BME280;45797;47.466;9.486;2023-09-19T00:19:09;95689.78;;;18.64;72.62
37892;BME280;45797;47.466;9.486;2023-09-19T00:24:13;95690.75;;;18.63;71.75
37892;BME280;45797;47.466;9.486;2023-09-19T00:29:16;95701.06;;;18.58;72.28
37892;BME280;45797;47.466;9.486;2023-09-19T00:34:26;95707.66;;;18.54;72.23
37892;BME280;45797;47.466;9.486;2023-09-19T00:39:28;95704.84;;;18.55;71.92
37892;BME280;45797;47.466;9.486;2023-09-19T00:44:32;95709.31;;;18.55;71.98
37892;BME280;45797;47.466;9.486;2023-09-19T00:49:40;95707.66;;;18.54;72.31
37892;BME280;45797;47.466;9.486;2023-09-19T00:54:41;95719.25;;;18.53;72.24
37892;BME280;45797;47.466;9.486;2023-09-19T00:59:50;95724.91;;;18.50;71.79
37892;BME280;45797;47.466;9.486;2023-09-19T01:04:52;95716.63;;;18.53;71.30
37892;BME280;45797;47.466;9.486;2023-09-19T01:10:09;95719.25;;;18.53;71.60
37892;BME280;45797;47.466;9.486;2023-09-19T01:20:57;95720.91;;;18.54;71.72
37892;BME280;45797;47.466;9.486;2023-09-19T01:31:37;95720.44;;;18.59;71.29
37892;BME280;45797;47.466;9.486;2023-09-19T01:36:41;95720.94;;;18.62;71.15
37892;BME280;45797;47.466;9.486;2023-09-19T01:42:06;95723.78;;;18.61;71.27
37892;BME280;45797;47.466;9.486;2023-09-19T01:47:35;95738.53;;;18.63;71.20
37892;BME280;45797;47.466;9.486;2023-09-19T01:52:45;95733.78;;;18.67;70.91
37892;BME280;45797;47.466;9.486;2023-09-19T01:58:01;95730.97;;;18.68;70.75
37892;BME280;45797;47.466;9.486;2023-09-19T02:03:05;95729.78;;;18.71;70.85
37892;BME280;45797;47.466;9.486;2023-09-19T02:08:22;95730.13;;;18.68;71.00
37892;BME280;45797;47.466;9.486;2023-09-19T02:13:32;95732.63;;;18.69;70.67
37892;BME280;45797;47.466;9.486;2023-09-19T02:18:36;95735.28;;;18.69;70.45
37892;BME280;45797;47.466;9.486;2023-09-19T02:23:38;95736.94;;;18.70;70.07
37892;BME280;45797;47.466;9.486;2023-09-19T02:28:40;95746.56;;;18.71;70.65
37892;BME280;45797;47.466;9.486;2023-09-19T02:33:45;95740.41;;;18.71;70.67
37892;BME280;45797;47.466;9.486;2023-09-19T02:38:56;95737.94;;;18.69;70.43
37892;BME280;45797;47.466;9.486;2023-09-19T02:44:04;95735.44;;;18.68;70.42
37892;BME280;45797;47.466;9.486;2023-09-19T02:49:07;95733.63;;;18.68;70.47
37892;BME280;45797;47.466;9.486;2023-09-19T02:54:08;95741.56;;;18.68;70.28
37892;BME280;45797;47.466;9.486;2023-09-19T03:05:17;95748.84;;;18.66;70.35
37892;BME280;45797;47.466;9.486;2023-09-19T03:10:34;95754.16;;;18.66;70.63
37892;BME280;45797;47.466;9.486;2023-09-19T03:15:41;95761.16;;;18.67;70.78
37892;BME280;45797;47.466;9.486;2023-09-19T03:20:56;95775.38;;;18.66;70.67
37892;BME280;45797;47.466;9.486;2023-09-19T03:26:05;95768.28;;;18.67;70.14
37892;BME280;45797;47.466;9.486;2023-09-19T03:31:22;95774.69;;;18.64;70.48
37892;BME280;45797;47.466;9.486;2023-09-19T03:36:28;95772.72;;;18.66;70.79
37892;BME280;45797;47.466;9.486;2023-09-19T03:41:34;95770.94;;;18.67;70.60
37892;BME280;45797;47.466;9.486;2023-09-19T03:46:49;95773.03;;;18.63;70.18
37892;BME280;45797;47.466;9.486;2023-09-19T03:52:00;95774.03;;;18.62;70.70
37892;BME280;45797;47.466;9.486;2023-09-19T03:57:02;95772.03;;;18.64;70.88
37892;BME280;45797;47.466;9.486;2023-09-19T04:02:03;95771.19;;;18.64;70.65
37892;BME280;45797;47.466;9.486;2023-09-19T04:07:08;95769.09;;;18.67;70.87
37892;BME280;45797;47.466;9.486;2023-09-19T04:12:25;95763.09;;;18.65;70.62
37892;BME280;45797;47.466;9.486;2023-09-19T04:17:39;95752.50;;;18.65;70.62
37892;BME280;45797;47.466;9.486;2023-09-19T04:22:58;95743.00;;;18.63;70.37
37892;BME280;45797;47.466;9.486;2023-09-19T04:28:04;95752.50;;;18.65;70.61
37892;BME280;45797;47.466;9.486;2023-09-19T04:33:05;95758.94;;;18.63;70.54
37892;BME280;45797;47.466;9.486;2023-09-19T04:38:06;95758.25;;;18.61;70.73
37892;BME280;45797;47.466;9.486;2023-09-19T04:43:09;95754.78;;;18.60;70.62
37892;BME280;45797;47.466;9.486;2023-09-19T04:48:16;95755.78;;;18.59;70.03
37892;BME280;45797;47.466;9.486;2023-09-19T04:53:22;95774.34;;;18.59;70.52
37892;BME280;45797;47.466;9.486;2023-09-19T04:58:22;95781.47;;;18.59;70.31
37892;BME280;45797;47.466;9.486;2023-09-19T05:03:28;95793.91;;;18.58;69.90
37892;BME280;45797;47.466;9.486;2023-09-19T05:08:29;95799.22;;;18.58;70.11
37892;BME280;45797;47.466;9.486;2023-09-19T05:13:29;95806.50;;;18.56;70.13
37892;BME280;45797;47.466;9.486;2023-09-19T05:18:40;95803.34;;;18.52;70.24
37892;BME280;45797;47.466;9.486;2023-09-19T05:23:51;95818.09;;;18.55;69.91
37892;BME280;45797;47.466;9.486;2023-09-19T05:28:54;95812.63;;;18.56;70.14
37892;BME280;45797;47.466;9.486;2023-09-19T05:33:54;95815.16;;;18.58;70.27
37892;BME280;45797;47.466;9.486;2023-09-19T05:38:55;95813.66;;;18.64;70.31
37892;BME280;45797;47.466;9.486;2023-09-19T05:44:27;95824.50;;;18.70;69.70
37892;BME280;45797;47.466;9.486;2023-09-19T05:49:38;95820.22;;;18.77;69.04
37892;BME280;45797;47.466;9.486;2023-09-19T05:54:41;95824.72;;;18.85;69.15
37892;BME280;45797;47.466;9.486;2023-09-19T05:59:52;95839.19;;;18.91;68.94
37892;BME280;45797;47.466;9.486;2023-09-19T06:05:26;95844.84;;;18.96;68.78
37892;BME280;45797;47.466;9.486;2023-09-19T06:10:34;95862.59;;;19.03;68.20
37892;BME280;45797;47.466;9.486;2023-09-19T06:15:51;95863.13;;;19.07;68.71
37892;BME280;45797;47.466;9.486;2023-09-19T06:20:53;95855.19;;;19.15;68.56
37892;BME280;45797;47.466;9.486;2023-09-19T06:26:11;95855.38;;;19.22;68.09
37892;BME280;45797;47.466;9.486;2023-09-19T06:31:20;95865.84;;;19.31;68.15
37892;BME280;45797;47.466;9.486;2023-09-19T06:36:24;95858.06;;;19.38;67.26
37892;BME280;45797;47.466;9.486;2023-09-19T06:41:30;95875.88;;;19.54;67.14
37892;BME280;45797;47.466;9.486;2023-09-19T06:46:36;95880.91;;;19.65;67.29
37892;BME280;45797;47.466;9.486;2023-09-19T06:51:47;95892.88;;;19.77;67.00
37892;BME280;45797;47.466;9.486;2023-09-19T06:56:57;95893.22;;;19.82;66.72
37892;BME280;45797;47.466;9.486;2023-09-19T07:01:58;95911.50;;;19.85;66.42
37892;BME280;45797;47.466;9.486;2023-09-19T07:07:00;95905.16;;;19.78;67.29
37892;BME280;45797;47.466;9.486;2023-09-19T07:12:02;95912.63;;;19.66;67.25
37892;BME280;45797;47.466;9.486;2023-09-19T07:17:02;95916.09;;;19.59;67.13
37892;BME280;45797;47.466;9.486;2023-09-19T07:22:05;95917.28;;;19.64;66.95
37892;BME280;45797;47.466;9.486;2023-09-19T07:27:11;95919.44;;;19.77;66.54
37892;BME280;45797;47.466;9.486;2023-09-19T07:32:13;95929.59;;;19.74;67.27
37892;BME280;45797;47.466;9.486;2023-09-19T07:37:14;95932.72;;;19.69;67.33
37892;BME280;45797;47.466;9.486;2023-09-19T07:42:15;95934.91;;;19.74;67.13
37892;BME280;45797;47.466;9.486;2023-09-19T07:47:36;95944.03;;;19.63;67.32
37892;BME280;45797;47.466;9.486;2023-09-19T07:52:41;95934.03;;;19.57;67.28
37892;BME280;45797;47.466;9.486;2023-09-19T07:57:41;95948.22;;;19.82;66.50
37892;BME280;45797;47.466;9.486;2023-09-19T08:02:43;95950.41;;;20.11;66.31
37892;BME280;45797;47.466;9.486;2023-09-19T08:07:52;95959.38;;;20.34;65.34
37892;BME280;45797;47.466;9.486;2023-09-19T08:12:58;95964.72;;;20.67;64.92
37892;BME280;45797;47.466;9.486;2023-09-19T08:18:00;95967.31;;;20.91;64.39
37892;BME280;45797;47.466;9.486;2023-09-19T08:23:02;95966.69;;;20.73;65.04
37892;BME280;45797;47.466;9.486;2023-09-19T08:28:21;95973.03;;;20.39;65.67
37892;BME280;45797;47.466;9.486;2023-09-19T08:33:25;95962.88;;;20.26;66.03
37892;BME280;45797;47.466;9.486;2023-09-19T08:38:26;95959.72;;;20.15;66.67
37892;BME280;45797;47.466;9.486;2023-09-19T08:43:30;95958.38;;;20.11;66.49
37892;BME280;45797;47.466;9.486;2023-09-19T08:48:46;95968.34;;;20.01;66.68
37892;BME280;45797;47.466;9.486;2023-09-19T08:54:16;95965.03;;;19.90;66.79
37892;BME280;45797;47.466;9.486;2023-09-19T08:59:23;95967.69;;;19.90;66.35
37892;BME280;45797;47.466;9.486;2023-09-19T09:04:49;95977.66;;;19.96;66.70
37892;BME280;45797;47.466;9.486;2023-09-19T09:10:04;95985.03;;;20.43;65.23
37892;BME280;45797;47.466;9.486;2023-09-19T09:15:07;96000.00;;;20.85;64.33
37892;BME280;45797;47.466;9.486;2023-09-19T09:20:12;95991.94;;;21.09;64.10
37892;BME280;45797;47.466;9.486;2023-09-19T09:25:20;95996.84;;;21.45;63.13
37892;BME280;45797;47.466;9.486;2023-09-19T09:30:44;95992.13;;;21.55;63.17
37892;BME280;45797;47.466;9.486;2023-09-19T09:35:59;96000.28;;;21.93;62.32
37892;BME280;45797;47.466;9.486;2023-09-19T09:41:11;95990.72;;;22.30;61.32
37892;BME280;45797;47.466;9.486;2023-09-19T09:46:18;95992.78;;;22.42;61.28
37892;BME280;45797;47.466;9.486;2023-09-19T09:57:01;95992.63;;;22.81;60.69
37892;BME280;45797;47.466;9.486;2023-09-19T10:02:15;95997.66;;;22.85;60.20
37892;BME280;45797;47.466;9.486;2023-09-19T10:07:30;95992.25;;;23.22;59.77
37892;BME280;45797;47.466;9.486;2023-09-19T10:12:38;95993.91;;;23.53;58.91
37892;BME280;45797;47.466;9.486;2023-09-19T10:18:01;95992.03;;;23.68;58.67
37892;BME280;45797;47.466;9.486;2023-09-19T10:23:11;95989.38;;;23.68;58.58
37892;BME280;45797;47.466;9.486;2023-09-19T10:28:19;95986.44;;;23.63;58.36
37892;BME280;45797;47.466;9.486;2023-09-19T10:33:24;95994.63;;;23.76;58.09
37892;BME280;45797;47.466;9.486;2023-09-19T10:38:33;95996.06;;;23.93;57.62
37892;BME280;45797;47.466;9.486;2023-09-19T10:43:52;95998.19;;;23.98;57.56
37892;BME280;45797;47.466;9.486;2023-09-19T10:48:59;95997.38;;;23.83;56.92
37892;BME280;45797;47.466;9.486;2023-09-19T10:54:11;95993.34;;;23.72;57.64
37892;BME280;45797;47.466;9.486;2023-09-19T10:59:21;95986.22;;;24.15;56.64
37892;BME280;45797;47.466;9.486;2023-09-19T11:04:32;95997.63;;;24.24;56.56
37892;BME280;45797;47.466;9.486;2023-09-19T11:09:55;95990.34;;;24.33;56.00
37892;BME280;45797;47.466;9.486;2023-09-19T11:14:59;95984.66;;;24.42;55.70
37892;BME280;45797;47.466;9.486;2023-09-19T11:30:45;95978.94;;;24.45;55.55
37892;BME280;45797;47.466;9.486;2023-09-19T11:36:17;95968.59;;;24.42;55.52
37892;BME280;45797;47.466;9.486;2023-09-19T11:41:37;95969.78;;;24.61;54.71
37892;BME280;45797;47.466;9.486;2023-09-19T11:46:55;95967.44;;;24.79;54.52
37892;BME280;45797;47.466;9.486;2023-09-19T11:52:00;95967.25;;;25.02;53.73
37892;BME280;45797;47.466;9.486;2023-09-19T11:57:28;95971.09;;;25.00;54.08
37892;BME280;45797;47.466;9.486;2023-09-19T12:02:42;95957.63;;;24.37;55.19
37892;BME280;45797;47.466;9.486;2023-09-19T12:07:47;95940.50;;;23.96;55.72
37892;BME280;45797;47.466;9.486;2023-09-19T12:12:48;95941.50;;;23.73;56.39
37892;BME280;45797;47.466;9.486;2023-09-19T12:17:55;95939.66;;;23.59;56.64
37892;BME280;45797;47.466;9.486;2023-09-19T12:22:55;95929.31;;;23.56;56.30
37892;BME280;45797;47.466;9.486;2023-09-19T12:27:58;95930.97;;;23.57;56.13
37892;BME280;45797;47.466;9.486;2023-09-19T12:33:34;95921.41;;;23.62;56.15
37892;BME280;45797;47.466;9.486;2023-09-19T12:38:36;95925.00;;;23.70;55.85
37892;BME280;45797;47.466;9.486;2023-09-19T12:43:36;95923.78;;;23.72;55.54
37892;BME280;45797;47.466;9.486;2023-09-19T12:48:41;95913.81;;;23.66;55.73
37892;BME280;45797;47.466;9.486;2023-09-19T12:53:57;95913.81;;;23.66;56.16
37892;BME280;45797;47.466;9.486;2023-09-19T12:58:58;95912.25;;;23.72;55.76
37892;BME280;45797;47.466;9.486;2023-09-19T13:10:04;95899.41;;;23.82;55.65
37892;BME280;45797;47.466;9.486;2023-09-19T13:20:26;95873.13;;;24.13;55.10
37892;BME280;45797;47.466;9.486;2023-09-19T13:25:32;95885.13;;;24.39;54.36
37892;BME280;45797;47.466;9.486;2023-09-19T13:30:37;95872.50;;;24.61;54.06
37892;BME280;45797;47.466;9.486;2023-09-19T13:35:41;95864.69;;;25.00;53.39
37892;BME280;45797;47.466;9.486;2023-09-19T13:40:44;95861.09;;;25.15;53.05
37892;BME280;45797;47.466;9.486;2023-09-19T13:51:28;95845.47;;;25.38;52.91
37892;BME280;45797;47.466;9.486;2023-09-19T13:56:31;95842.63;;;25.46;52.70
37892;BME280;45797;47.466;9.486;2023-09-19T14:01:39;95842.88;;;25.51;52.60
37892;BME280;45797;47.466;9.486;2023-09-19T14:06:43;95825.13;;;25.63;52.42
37892;BME280;45797;47.466;9.486;2023-09-19T14:11:54;95820.84;;;25.76;52.31
37892;BME280;45797;47.466;9.486;2023-09-19T14:17:06;95815.88;;;25.86;52.28
37892;BME280;45797;47.466;9.486;2023-09-19T14:22:09;95817.78;;;25.99;51.71
37892;BME280;45797;47.466;9.486;2023-09-19T14:27:13;95819.63;;;26.18;51.12
37892;BME280;45797;47.466;9.486;2023-09-19T14:32:14;95809.91;;;26.43;50.50
37892;BME280;45797;47.466;9.486;2023-09-19T14:37:21;95807.59;;;26.73;49.84
37892;BME280;45797;47.466;9.486;2023-09-19T14:42:21;95802.13;;;27.00;49.46
37892;BME280;45797;47.466;9.486;2023-09-19T14:47:32;95793.00;;;27.14;49.76
37892;BME280;45797;47.466;9.486;2023-09-19T14:52:37;95798.88;;;27.43;49.03
37892;BME280;45797;47.466;9.486;2023-09-19T14:57:40;95795.13;;;27.44;49.13
37892;BME280;45797;47.466;9.486;2023-09-19T15:02:44;95787.84;;;27.13;49.71
37892;BME280;45797;47.466;9.486;2023-09-19T15:07:47;95797.84;;;26.86;50.77
37892;BME280;45797;47.466;9.486;2023-09-19T15:12:47;95785.72;;;26.50;51.43
37892;BME280;45797;47.466;9.486;2023-09-19T15:23:41;95787.19;;;26.39;51.78
37892;BME280;45797;47.466;9.486;2023-09-19T15:28:41;95779.75;;;26.35;51.46
37892;BME280;45797;47.466;9.486;2023-09-19T15:33:57;95782.44;;;26.22;51.52
37892;BME280;45797;47.466;9.486;2023-09-19T15:39:05;95776.25;;;26.28;51.73
37892;BME280;45797;47.466;9.486;2023-09-19T15:44:18;95778.53;;;26.37;51.66
37892;BME280;45797;47.466;9.486;2023-09-19T15:49:30;95775.84;;;26.44;51.57
37892;BME280;45797;47.466;9.486;2023-09-19T15:54:31;95772.28;;;26.43;51.38
37892;BME280;45797;47.466;9.486;2023-09-19T15:59:39;95778.09;;;26.27;52.16
37892;BME280;45797;47.466;9.486;2023-09-19T16:04:41;95776.88;;;26.16;52.05
37892;BME280;45797;47.466;9.486;2023-09-19T16:09:52;95774.19;;;26.03;52.35
37892;BME280;45797;47.466;9.486;2023-09-19T16:14:52;95779.34;;;25.98;52.46
37892;BME280;45797;47.466;9.486;2023-09-19T16:19:59;95777.06;;;25.95;52.55
37892;BME280;45797;47.466;9.486;2023-09-19T16:25:09;95774.81;;;25.92;53.08
37892;BME280;45797;47.466;9.486;2023-09-19T16:30:16;95771.28;;;25.85;53.01
37892;BME280;45797;47.466;9.486;2023-09-19T16:35:21;95774.63;;;25.87;52.88
37892;BME280;45797;47.466;9.486;2023-09-19T16:40:25;95783.28;;;25.82;52.99
37892;BME280;45797;47.466;9.486;2023-09-19T16:45:26;95775.41;;;25.74;53.13
37892;BME280;45797;47.466;9.486;2023-09-19T16:50:27;95767.53;;;25.59;53.67
37892;BME280;45797;47.466;9.486;2023-09-19T16:55:28;95775.56;;;25.40;53.94
37892;BME280;45797;47.466;9.486;2023-09-19T17:00:28;95780.22;;;25.18;54.76
37892;BME280;45797;47.466;9.486;2023-09-19T17:05:30;95772.69;;;24.93;55.14
37892;BME280;45797;47.466;9.486;2023-09-19T17:10:31;95773.59;;;24.66;55.82
37892;BME280;45797;47.466;9.486;2023-09-19T17:15:34;95772.13;;;24.29;56.76
37892;BME280;45797;47.466;9.486;2023-09-19T17:20:40;95777.63;;;23.92;57.14
37892;BME280;45797;47.466;9.486;2023-09-19T17:25:43;95775.50;;;23.60;57.40
37892;BME280;45797;47.466;9.486;2023-09-19T17:30:46;95784.59;;;23.29;58.14
37892;BME280;45797;47.466;9.486;2023-09-19T17:35:50;95775.66;;;23.01;58.29
37892;BME280;45797;47.466;9.486;2023-09-19T17:41:06;95778.97;;;22.73;58.75
37892;BME280;45797;47.466;9.486;2023-09-19T17:46:17;95781.97;;;22.49;58.99
37892;BME280;45797;47.466;9.486;2023-09-19T17:51:17;95780.84;;;22.29;59.17
37892;BME280;45797;47.466;9.486;2023-09-19T17:56:18;95788.38;;;22.10;59.32
37892;BME280;45797;47.466;9.486;2023-09-19T18:01:21;95801.19;;;21.92;59.64
37892;BME280;45797;47.466;9.486;2023-09-19T18:06:32;95798.84;;;21.74;59.93
37892;BME280;45797;47.466;9.486;2023-09-19T18:11:33;95807.47;;;21.61;59.79
37892;BME280;45797;47.466;9.486;2023-09-19T18:16:35;95802.53;;;21.50;59.92
37892;BME280;45797;47.466;9.486;2023-09-19T18:21:39;95796.13;;;21.36;60.06
37892;BME280;45797;47.466;9.486;2023-09-19T18:26:43;95802.84;;;21.24;60.24
37892;BME280;45797;47.466;9.486;2023-09-19T18:31:47;95803.91;;;21.15;60.13
37892;BME280;45797;47.466;9.486;2023-09-19T18:36:54;95804.97;;;21.06;60.08
37892;BME280;45797;47.466;9.486;2023-09-19T18:42:01;95803.34;;;20.97;60.33
37892;BME280;45797;47.466;9.486;2023-09-19T18:47:05;95816.34;;;20.92;60.08
37892;BME280;45797;47.466;9.486;2023-09-19T18:52:06;95811.03;;;20.83;60.44
37892;BME280;45797;47.466;9.486;2023-09-19T18:57:17;95815.75;;;20.73;60.43
37892;BME280;45797;47.466;9.486;2023-09-19T19:02:37;95814.94;;;20.65;60.68
37892;BME280;45797;47.466;9.486;2023-09-19T19:07:43;95820.63;;;20.62;60.40
37892;BME280;45797;47.466;9.486;2023-09-19T19:12:43;95817.81;;;20.55;60.48
37892;BME280;45797;47.466;9.486;2023-09-19T19:17:46;95818.16;;;20.52;60.72
37892;BME280;45797;47.466;9.486;2023-09-19T19:22:48;95820.53;;;20.47;60.46
37892;BME280;45797;47.466;9.486;2023-09-19T19:27:49;95822.00;;;20.41;60.25
37892;BME280;45797;47.466;9.486;2023-09-19T19:33:06;95826.31;;;20.34;60.29
37892;BME280;45797;47.466;9.486;2023-09-19T19:38:12;95831.00;;;20.32;60.04
37892;BME280;45797;47.466;9.486;2023-09-19T19:43:20;95841.81;;;20.31;60.35
37892;BME280;45797;47.466;9.486;2023-09-19T19:48:20;95844.97;;;20.26;60.58
37892;BME280;45797;47.466;9.486;2023-09-19T19:53:32;95841.16;;;20.20;60.52
37892;BME280;45797;47.466;9.486;2023-09-19T19:58:35;95845.66;;;20.20;60.32
37892;BME280;45797;47.466;9.486;2023-09-19T20:03:37;95844.97;;;20.18;60.42
37892;BME280;45797;47.466;9.486;2023-09-19T20:08:41;95853.31;;;20.15;60.45
37892;BME280;45797;47.466;9.486;2023-09-19T20:13:42;95858.13;;;20.11;60.60
37892;BME280;45797;47.466;9.486;2023-09-19T20:18:42;95864.59;;;20.09;60.62
37892;BME280;45797;47.466;9.486;2023-09-19T20:23:45;95860.28;;;20.08;60.23
37892;BME280;45797;47.466;9.486;2023-09-19T20:28:51;95861.81;;;20.02;60.70
37892;BME280;45797;47.466;9.486;2023-09-19T20:33:57;95862.81;;;20.01;60.70
37892;BME280;45797;47.466;9.486;2023-09-19T20:38:57;95860.47;;;19.98;60.37
37892;BME280;45797;47.466;9.486;2023-09-19T20:43:57;95871.94;;;19.98;60.57
37892;BME280;45797;47.466;9.486;2023-09-19T20:49:00;95867.94;;;19.94;60.63
37892;BME280;45797;47.466;9.486;2023-09-19T20:54:02;95878.94;;;19.91;60.55
37892;BME280;45797;47.466;9.486;2023-09-19T20:59:17;95887.38;;;19.87;60.58
37892;BME280;45797;47.466;9.486;2023-09-19T21:04:20;95887.22;;;19.88;60.69
37892;BME280;45797;47.466;9.486;2023-09-19T21:09:22;95886.22;;;19.89;60.86
37892;BME280;45797;47.466;9.486;2023-09-19T21:14:27;95888.22;;;19.87;60.44
37892;BME280;45797;47.466;9.486;2023-09-19T21:19:28;95886.38;;;19.88;60.72
37892;BME280;45797;47.466;9.486;2023-09-19T21:24:29;95892.41;;;19.90;60.49
37892;BME280;45797;47.466;9.486;2023-09-19T21:29:33;95887.91;;;19.90;60.94
37892;BME280;45797;47.466;9.486;2023-09-19T21:34:35;95903.88;;;19.90;60.54
37892;BME280;45797;47.466;9.486;2023-09-19T21:39:37;95897.72;;;19.90;60.79
37892;BME280;45797;47.466;9.486;2023-09-19T21:44:39;95898.69;;;19.89;61.04
37892;BME280;45797;47.466;9.486;2023-09-19T21:49:39;95907.16;;;19.84;61.15
37892;BME280;45797;47.466;9.486;2023-09-19T21:54:45;95910.47;;;19.78;61.16
37892;BME280;45797;47.466;9.486;2023-09-19T21:59:46;95908.00;;;19.77;61.14
37892;BME280;45797;47.466;9.486;2023-09-19T22:04:50;95908.31;;;19.74;61.68
37892;BME280;45797;47.466;9.486;2023-09-19T22:09:53;95908.16;;;19.75;61.44
37892;BME280;45797;47.466;9.486;2023-09-19T22:14:54;95911.47;;;19.77;61.22
37892;BME280;45797;47.466;9.486;2023-09-19T22:19:58;95906.50;;;19.82;61.13
37892;BME280;45797;47.466;9.486;2023-09-19T22:25:00;95901.34;;;19.89;61.14
37892;BME280;45797;47.466;9.486;2023-09-19T22:30:05;95896.19;;;19.95;60.69
37892;BME280;45797;47.466;9.486;2023-09-19T22:35:07;95897.56;;;20.00;61.11
37892;BME280;45797;47.466;9.486;2023-09-19T22:40:27;95891.72;;;19.96;61.29
37892;BME280;45797;47.466;9.486;2023-09-19T22:45:47;95889.41;;;19.93;61.22
37892;BME280;45797;47.466;9.486;2023-09-19T22:50:51;95898.53;;;19.90;61.36
37892;BME280;45797;47.466;9.486;2023-09-19T22:56:11;95898.03;;;19.87;61.38
37892;BME280;45797;47.466;9.486;2023-09-19T23:01:16;95897.03;;;19.88;61.43
37892;BME280;45797;47.466;9.486;2023-09-19T23:06:41;95894.88;;;19.83;61.67
37892;BME280;45797;47.466;9.486;2023-09-19T23:11:51;95891.38;;;19.83;61.79
37892;BME280;45797;47.466;9.486;2023-09-19T23:16:58;95891.88;;;19.78;61.96
37892;BME280;45797;47.466;9.486;2023-09-19T23:22:00;95885.88;;;19.76;61.91
37892;BME280;45797;47.466;9.486;2023-09-19T23:27:24;95876.91;;;19.69;62.08
37892;BME280;45797;47.466;9.486;2023-09-19T23:32:27;95873.91;;;19.56;63.00
37892;BME280;45797;47.466;9.486;2023-09-19T23:37:34;95862.91;;;19.43;62.95
37892;BME280;45797;47.466;9.486;2023-09-19T23:42:35;95867.50;;;19.32;63.24
37892;BME280;45797;47.466;9.486;2023-09-19T23:47:36;95867.81;;;19.21;63.65
37892;BME280;45797;47.466;9.486;2023-09-19T23:52:37;95867.78;;;19.13;63.54
37892;BME280;45797;47.466;9.486;2023-09-19T23:57:43;95872.56;;;19.01;63.63
